createdAt,value
2022-09-29T00:01:47.139Z,99887.91
2022-09-29T00:04:14.672Z,99889.16
2022-09-29T00:06:42.108Z,99883.63
2022-09-29T00:09:09.507Z,99876.47
2022-09-29T00:11:38.248Z,99880.84
2022-09-29T00:14:05.805Z,99874.56
2022-09-29T00:16:33.250Z,99877.44
2022-09-29T00:19:00.623Z,99880.13
2022-09-29T00:21:28.001Z,99873.94
2022-09-29T00:23:55.354Z,99876.09
2022-09-29T00:26:24.287Z,99862.13
2022-09-29T00:28:55.444Z,99870.72
2022-09-29T00:31:23.090Z,99873.94
2022-09-29T00:33:50.995Z,99875.91
2022-09-29T00:36:19.316Z,99869.47
2022-09-29T00:38:47.591Z,99870.63
2022-09-29T00:41:17.841Z,99875.38
2022-09-29T00:43:49.493Z,99877.59
2022-09-29T00:46:20.098Z,99872.50
2022-09-29T00:48:48.331Z,99870.59
2022-09-29T00:51:16.263Z,99868.94
2022-09-29T00:53:44.213Z,99875.34
2022-09-29T00:56:14.983Z,99870.00
2022-09-29T00:58:43.982Z,99871.53
2022-09-29T01:01:13.181Z,99875.53
2022-09-29T01:03:45.401Z,99872.94
2022-09-29T01:06:15.216Z,99876.53
2022-09-29T01:08:44.828Z,99867.94
2022-09-29T01:11:13.390Z,99865.69
2022-09-29T01:13:41.815Z,99869.91
2022-09-29T01:16:10.408Z,99870.06
2022-09-29T01:18:38.228Z,99874.78
2022-09-29T01:21:13.000Z,99865.66
2022-09-29T01:23:58.456Z,99852.16
2022-09-29T01:26:51.947Z,99873.09
2022-09-29T01:29:38.921Z,99874.09
2022-09-29T01:32:11.093Z,99870.69
2022-09-29T01:34:42.707Z,99878.00
2022-09-29T01:37:16.554Z,99878.72
2022-09-29T01:39:48.086Z,99874.69
2022-09-29T01:42:19.351Z,99879.06
2022-09-29T01:44:48.824Z,99885.22
2022-09-29T01:47:20.485Z,99821.72
2022-09-29T01:49:51.898Z,99882.47
2022-09-29T01:52:20.910Z,99886.44
2022-09-29T01:54:49.947Z,99887.19
2022-09-29T01:57:20.266Z,99890.38
2022-09-29T01:59:50.383Z,99891.81
2022-09-29T02:02:23.618Z,99890.66
2022-09-29T02:04:54.075Z,99884.28
2022-09-29T02:07:23.677Z,99891.91
2022-09-29T02:09:53.929Z,99886.78
2022-09-29T02:12:25.915Z,99879.91
2022-09-29T02:14:54.707Z,99888.47
2022-09-29T02:17:26.120Z,99891.09
2022-09-29T02:19:54.316Z,99878.16
2022-09-29T02:22:21.882Z,99889.00
2022-09-29T02:24:50.838Z,99880.22
2022-09-29T02:27:18.404Z,99884.44
2022-09-29T02:29:45.935Z,99881.31
2022-09-29T02:32:14.280Z,99882.13
2022-09-29T02:34:45.993Z,99880.50
2022-09-29T02:37:24.478Z,99892.66
2022-09-29T02:39:55.143Z,99885.88
2022-09-29T02:42:26.260Z,99884.94
2022-09-29T02:45:07.670Z,99889.97
2022-09-29T02:47:52.828Z,99881.09
2022-09-29T02:50:32.342Z,99886.25
2022-09-29T02:53:05.216Z,99884.84
2022-09-29T02:55:37.349Z,99892.63
2022-09-29T02:58:07.810Z,99896.53
2022-09-29T03:00:35.539Z,99897.66
2022-09-29T03:03:02.976Z,99891.69
2022-09-29T03:05:36.570Z,99894.28
2022-09-29T03:08:06.595Z,99896.22
2022-09-29T03:10:34.008Z,99883.81
2022-09-29T03:13:01.443Z,99889.00
2022-09-29T03:15:28.793Z,99892.06
2022-09-29T03:17:57.593Z,99895.47
2022-09-29T03:20:25.978Z,99897.91
2022-09-29T03:22:58.089Z,99900.81
2022-09-29T03:25:25.545Z,99896.78
2022-09-29T03:27:53.155Z,99894.38
2022-09-29T03:30:22.741Z,99898.75
2022-09-29T03:32:50.191Z,99890.34
2022-09-29T03:35:17.632Z,99897.47
2022-09-29T03:37:45.177Z,99897.47
2022-09-29T03:40:14.038Z,99888.25
2022-09-29T03:42:41.473Z,99901.53
2022-09-29T03:45:09.412Z,99898.75
2022-09-29T03:47:36.797Z,99898.94
2022-09-29T03:50:04.254Z,99901.69
2022-09-29T03:52:31.651Z,99909.00
2022-09-29T03:54:59.065Z,99904.16
2022-09-29T03:57:27.855Z,99902.53
2022-09-29T03:59:55.409Z,99912.91
2022-09-29T04:02:22.918Z,99902.06
2022-09-29T04:04:50.415Z,99909.66
2022-09-29T04:07:17.836Z,99911.97
2022-09-29T04:09:45.279Z,99911.81
2022-09-29T04:12:12.696Z,99836.78
2022-09-29T04:14:41.539Z,99918.78
2022-09-29T04:17:08.985Z,99921.06
2022-09-29T04:19:36.392Z,99924.63
2022-09-29T04:22:03.807Z,99925.91
2022-09-29T04:24:31.587Z,99934.31
2022-09-29T04:26:58.988Z,99933.03
2022-09-29T04:29:26.389Z,99939.84
2022-09-29T04:31:56.176Z,99938.06
2022-09-29T04:34:23.555Z,99939.84
2022-09-29T04:36:51.034Z,99939.03
2022-09-29T04:39:18.497Z,99937.41
2022-09-29T04:41:45.967Z,99945.53
2022-09-29T04:44:13.498Z,99941.16
2022-09-29T04:46:40.947Z,99948.28
2022-09-29T04:49:09.792Z,99950.22
2022-09-29T04:51:37.209Z,99953.13
2022-09-29T04:54:04.739Z,99950.38
2022-09-29T04:56:32.142Z,99955.56
2022-09-29T04:58:59.533Z,99957.50
2022-09-29T05:01:27.275Z,99957.88
2022-09-29T05:03:54.744Z,99950.09
2022-09-29T05:06:23.692Z,99944.44
2022-09-29T05:08:51.094Z,99948.00
2022-09-29T05:11:18.499Z,99954.63
2022-09-29T05:13:49.166Z,99959.31
2022-09-29T05:16:16.549Z,99963.84
2022-09-29T05:18:44.176Z,99963.22
2022-09-29T05:21:28.625Z,99966.75
2022-09-29T05:24:01.682Z,99960.78
2022-09-29T05:26:29.074Z,99970.31
2022-09-29T05:28:56.504Z,99969.06
2022-09-29T05:31:23.959Z,99972.63
2022-09-29T05:33:51.929Z,99970.84
2022-09-29T05:36:19.477Z,99971.00
2022-09-29T05:38:46.883Z,99983.13
2022-09-29T05:41:16.992Z,99984.78
2022-09-29T05:43:44.380Z,99976.19
2022-09-29T05:46:11.994Z,99983.78
2022-09-29T05:48:39.536Z,99981.53
2022-09-29T05:51:11.236Z,99980.22
2022-09-29T05:53:38.766Z,99985.22
2022-09-29T05:56:07.157Z,99992.66
2022-09-29T05:58:36.906Z,99991.69
2022-09-29T06:01:06.440Z,99988.47
2022-09-29T06:03:34.136Z,100005.28
2022-09-29T06:06:05.419Z,100002.53
2022-09-29T06:08:33.140Z,100000.94
2022-09-29T06:11:03.704Z,100000.75
2022-09-29T06:13:31.071Z,99998.78
2022-09-29T06:16:00.566Z,99999.28
2022-09-29T06:18:28.041Z,100002.69
2022-09-29T06:20:55.538Z,99999.59
2022-09-29T06:23:22.955Z,100007.84
2022-09-29T06:25:56.150Z,100003.47
2022-09-29T06:28:23.536Z,100006.53
2022-09-29T06:30:50.896Z,100009.44
2022-09-29T06:33:20.446Z,100009.75
2022-09-29T06:36:05.395Z,100011.38
2022-09-29T06:38:32.910Z,100013.63
2022-09-29T06:41:01.386Z,100016.53
2022-09-29T06:43:28.949Z,100019.25
2022-09-29T06:45:56.490Z,100021.19
2022-09-29T06:48:25.326Z,100026.50
2022-09-29T06:51:04.791Z,100028.47
2022-09-29T06:53:38.596Z,100032.00
2022-09-29T06:56:06.807Z,100034.91
2022-09-29T06:58:34.220Z,100031.63
2022-09-29T07:01:02.084Z,100037.06
2022-09-29T07:03:31.082Z,100038.31
2022-09-29T07:08:46.206Z,100041.03
2022-09-29T07:11:13.586Z,100042.13
2022-09-29T07:13:40.999Z,100041.31
2022-09-29T07:16:09.491Z,100044.69
2022-09-29T07:18:40.424Z,100039.78
2022-09-29T07:21:09.961Z,100046.91
2022-09-29T07:23:37.653Z,100043.25
2022-09-29T07:26:05.272Z,100049.56
2022-09-29T07:28:32.747Z,100050.63
2022-09-29T07:31:11.636Z,100051.56
2022-09-29T07:33:43.442Z,100055.72
2022-09-29T07:36:10.956Z,100060.84
2022-09-29T07:38:38.526Z,100064.53
2022-09-29T07:41:07.634Z,100070.28
2022-09-29T07:43:35.504Z,100064.22
2022-09-29T07:46:03.325Z,100064.97
2022-09-29T07:48:32.451Z,100067.47
2022-09-29T07:51:05.113Z,100075.00
2022-09-29T07:53:32.561Z,100075.47
2022-09-29T07:56:03.836Z,100083.00
2022-09-29T07:58:32.227Z,100090.44
2022-09-29T08:00:59.782Z,100087.22
2022-09-29T08:03:27.266Z,100092.31
2022-09-29T08:05:54.761Z,100084.63
2022-09-29T08:08:23.469Z,100091.44
2022-09-29T08:10:53.608Z,100095.28
2022-09-29T08:13:21.347Z,100097.09
2022-09-29T08:15:48.751Z,100101.56
2022-09-29T08:18:16.140Z,100104.25
2022-09-29T08:20:43.542Z,100105.94
2022-09-29T08:23:10.949Z,100104.03
2022-09-29T08:25:41.054Z,100116.31
2022-09-29T08:28:12.195Z,100111.63
2022-09-29T08:30:40.791Z,100118.06
2022-09-29T08:33:12.361Z,100117.16
2022-09-29T08:35:40.259Z,100124.03
2022-09-29T08:38:07.642Z,100127.31
2022-09-29T08:40:35.309Z,100126.50
2022-09-29T08:43:09.720Z,100127.25
2022-09-29T08:45:46.793Z,100138.47
2022-09-29T08:48:23.965Z,100139.56
2022-09-29T08:50:56.271Z,100147.38
2022-09-29T08:53:29.023Z,100144.63
2022-09-29T08:56:01.440Z,100151.88
2022-09-29T08:58:30.954Z,100152.56
2022-09-29T09:01:02.609Z,100149.22
2022-09-29T09:03:42.876Z,100150.59
2022-09-29T09:06:20.926Z,100153.03
2022-09-29T09:08:58.406Z,100155.63
2022-09-29T09:11:34.586Z,100156.19
2022-09-29T09:14:09.940Z,100159.06
2022-09-29T09:16:44.272Z,100161.94
2022-09-29T09:19:19.712Z,100163.56
2022-09-29T09:21:50.202Z,100161.41
2022-09-29T09:24:21.601Z,100147.13
2022-09-29T09:26:52.107Z,100166.94
2022-09-29T09:29:25.394Z,100164.38
2022-09-29T09:31:57.468Z,100168.41
2022-09-29T09:34:42.071Z,100164.03
2022-09-29T09:37:14.756Z,100160.22
2022-09-29T09:39:46.723Z,100165.47
2022-09-29T09:42:16.651Z,100161.03
2022-09-29T09:44:49.119Z,100163.09
2022-09-29T09:47:24.210Z,100167.97
2022-09-29T09:49:54.003Z,100171.97
2022-09-29T09:52:23.730Z,100171.66
2022-09-29T09:54:53.549Z,100177.06
2022-09-29T09:57:29.163Z,100170.03
2022-09-29T10:00:03.716Z,100169.59
2022-09-29T10:02:32.211Z,100171.22
2022-09-29T10:04:59.647Z,100179.53
2022-09-29T10:07:29.115Z,100184.56
2022-09-29T10:09:57.058Z,100177.75
2022-09-29T10:12:25.433Z,100178.38
2022-09-29T10:14:55.102Z,100181.38
2022-09-29T10:17:24.896Z,100183.63
2022-09-29T10:19:57.092Z,100184.63
2022-09-29T10:22:24.506Z,100180.22
2022-09-29T10:24:55.097Z,100185.66
2022-09-29T10:27:25.530Z,100185.44
2022-09-29T10:29:54.610Z,100185.28
2022-09-29T10:32:36.312Z,100184.38
2022-09-29T10:35:08.979Z,100188.31
2022-09-29T10:37:38.401Z,100188.72
2022-09-29T10:40:15.052Z,100193.53
2022-09-29T10:42:43.345Z,100203.63
2022-09-29T10:45:13.973Z,100203.22
2022-09-29T10:47:43.705Z,100213.22
2022-09-29T10:50:16.911Z,100203.28
2022-09-29T10:52:45.610Z,100212.88
2022-09-29T10:55:20.552Z,100205.28
2022-09-29T10:57:48.559Z,100204.28
2022-09-29T11:00:29.703Z,100211.19
2022-09-29T11:03:02.974Z,100158.34
2022-09-29T11:05:30.478Z,100223.44
2022-09-29T11:07:58.096Z,100225.00
2022-09-29T11:10:29.487Z,100218.22
2022-09-29T11:12:57.530Z,100217.44
2022-09-29T11:15:26.211Z,100215.13
2022-09-29T11:17:53.988Z,100226.09
2022-09-29T11:20:24.702Z,100223.72
2022-09-29T11:23:07.874Z,100222.97
2022-09-29T11:25:58.975Z,100228.53
2022-09-29T11:28:44.249Z,100229.03
2022-09-29T11:31:23.606Z,100216.84
2022-09-29T11:33:57.036Z,100228.44
2022-09-29T11:36:32.142Z,100234.88
2022-09-29T11:39:21.311Z,100235.75
2022-09-29T11:41:55.579Z,100233.47
2022-09-29T11:44:41.035Z,100244.03
2022-09-29T11:47:14.292Z,100246.47
2022-09-29T11:49:56.027Z,100259.38
2022-09-29T11:52:35.218Z,100238.97
2022-09-29T11:55:15.918Z,100241.06
2022-09-29T11:57:50.787Z,100240.97
2022-09-29T12:00:19.573Z,100245.47
2022-09-29T12:02:55.912Z,100260.78
2022-09-29T12:05:26.591Z,100253.13
2022-09-29T12:08:05.859Z,100261.22
2022-09-29T12:10:50.314Z,100259.84
2022-09-29T12:13:22.628Z,100263.97
2022-09-29T12:15:53.661Z,100264.69
2022-09-29T12:18:23.691Z,100261.69
2022-09-29T12:20:53.784Z,100272.44
2022-09-29T12:23:24.084Z,100272.59
2022-09-29T12:25:54.488Z,100278.66
2022-09-29T12:28:24.786Z,100276.56
2022-09-29T12:30:56.106Z,100275.28
2022-09-29T12:33:26.150Z,100272.09
2022-09-29T12:35:56.554Z,100270.31
2022-09-29T12:38:29.883Z,100270.41
2022-09-29T12:41:03.375Z,100264.94
2022-09-29T12:43:34.129Z,100262.31
2022-09-29T12:46:07.233Z,100272.53
2022-09-29T12:48:40.270Z,100264.31
2022-09-29T12:51:12.940Z,100270.34
2022-09-29T12:53:46.752Z,100266.03
2022-09-29T12:56:21.068Z,100269.50
2022-09-29T12:58:53.063Z,100268.56
2022-09-29T13:01:22.466Z,100274.16
2022-09-29T13:04:03.752Z,100279.56
2022-09-29T13:06:41.914Z,100271.91
2022-09-29T13:09:27.402Z,100276.91
2022-09-29T13:12:05.669Z,100285.16
2022-09-29T13:14:51.422Z,100248.28
2022-09-29T13:17:26.514Z,100285.88
2022-09-29T13:20:06.147Z,100289.00
2022-09-29T13:22:54.812Z,100292.84
2022-09-29T13:25:24.272Z,100289.09
2022-09-29T13:27:55.148Z,100297.25
2022-09-29T13:30:25.042Z,100301.88
2022-09-29T13:32:55.249Z,100301.97
2022-09-29T13:35:25.235Z,100295.06
2022-09-29T13:37:54.842Z,100306.03
2022-09-29T13:40:24.506Z,100300.25
2022-09-29T13:42:55.606Z,100302.38
2022-09-29T13:45:41.914Z,100247.63
2022-09-29T13:48:27.162Z,100299.38
2022-09-29T13:50:59.547Z,100300.25
2022-09-29T13:53:35.906Z,100300.81
2022-09-29T13:56:11.249Z,100306.13
2022-09-29T13:58:58.858Z,100304.41
2022-09-29T14:01:33.978Z,100300.75
2022-09-29T14:04:16.295Z,100310.84
2022-09-29T14:06:47.903Z,100314.66
2022-09-29T14:09:17.242Z,100316.91
2022-09-29T14:11:48.703Z,100325.13
2022-09-29T14:14:18.237Z,100324.56
2022-09-29T14:16:53.314Z,100322.88
2022-09-29T14:19:26.364Z,100322.88
2022-09-29T14:21:55.835Z,100327.50
2022-09-29T14:24:42.092Z,100318.97
2022-09-29T14:27:29.442Z,100329.53
2022-09-29T14:30:01.790Z,100321.84
2022-09-29T14:32:40.855Z,100326.34
2022-09-29T14:35:18.460Z,100335.22
2022-09-29T14:37:49.430Z,100328.50
2022-09-29T14:40:29.910Z,100333.88
2022-09-29T14:43:07.646Z,100331.69
2022-09-29T14:46:01.118Z,100334.34
2022-09-29T14:48:52.650Z,100349.22
2022-09-29T14:51:40.907Z,100345.00
2022-09-29T14:54:14.225Z,100345.31
2022-09-29T14:56:50.094Z,100343.13
2022-09-29T14:59:25.195Z,100355.28
2022-09-29T15:02:07.578Z,100346.50
2022-09-29T15:04:38.979Z,100364.19
2022-09-29T15:07:11.076Z,100361.94
2022-09-29T15:09:40.551Z,100364.41
2022-09-29T15:12:15.017Z,100364.69
2022-09-29T15:14:42.757Z,100361.38
2022-09-29T15:17:18.640Z,100361.38
2022-09-29T15:19:55.296Z,100364.91
2022-09-29T15:22:52.354Z,100363.66
2022-09-29T15:25:24.004Z,100370.50
2022-09-29T15:27:53.207Z,100369.31
2022-09-29T15:30:22.324Z,100367.28
2022-09-29T15:32:50.981Z,100373.06
2022-09-29T15:35:21.468Z,100381.66
2022-09-29T15:37:56.528Z,100377.84
2022-09-29T15:40:26.417Z,100373.25
2022-09-29T15:42:55.468Z,100378.47
2022-09-29T15:45:23.857Z,100378.59
2022-09-29T15:47:59.487Z,100389.22
2022-09-29T15:50:27.660Z,100386.66
2022-09-29T15:52:55.208Z,100386.34
2022-09-29T15:55:23.705Z,100388.94
2022-09-29T15:57:54.613Z,100389.34
2022-09-29T16:00:51.929Z,100389.66
2022-09-29T16:03:27.139Z,100395.91
2022-09-29T16:06:02.289Z,100395.69
2022-09-29T16:08:32.039Z,100398.38
2022-09-29T16:11:01.366Z,100402.75
2022-09-29T16:13:32.944Z,100406.31
2022-09-29T16:16:01.748Z,100405.78
2022-09-29T16:18:32.312Z,100412.53
2022-09-29T16:21:00.609Z,100417.69
2022-09-29T16:23:29.056Z,100417.25
2022-09-29T16:26:14.240Z,100425.88
2022-09-29T16:28:59.452Z,100425.50
2022-09-29T16:31:28.265Z,100418.00
2022-09-29T16:33:56.437Z,100420.47
2022-09-29T16:36:25.032Z,100433.63
2022-09-29T16:38:53.655Z,100427.03
2022-09-29T16:41:27.606Z,100428.09
2022-09-29T16:44:06.745Z,100428.97
2022-09-29T16:46:34.938Z,100428.19
2022-09-29T16:49:02.481Z,100438.53
2022-09-29T16:51:45.296Z,100436.78
2022-09-29T16:54:16.575Z,100441.84
2022-09-29T16:56:45.362Z,100435.41
2022-09-29T16:59:15.051Z,100436.06
2022-09-29T17:01:43.215Z,100439.72
2022-09-29T17:04:11.373Z,100446.41
2022-09-29T17:06:39.156Z,100450.47
2022-09-29T17:09:06.777Z,100446.38
2022-09-29T17:11:35.460Z,100459.91
2022-09-29T17:14:03.341Z,100456.88
2022-09-29T17:16:33.533Z,100450.44
2022-09-29T17:19:01.794Z,100450.44
2022-09-29T17:21:32.098Z,100459.69
2022-09-29T17:24:02.167Z,100459.69
2022-09-29T17:26:53.079Z,100466.31
2022-09-29T17:29:20.514Z,100466.09
2022-09-29T17:31:49.267Z,100470.88
2022-09-29T17:34:17.342Z,100470.25
2022-09-29T17:36:45.386Z,100473.03
2022-09-29T17:39:13.344Z,100470.78
2022-09-29T17:41:45.719Z,100472.75
2022-09-29T17:44:13.574Z,100477.31
2022-09-29T17:46:41.454Z,100473.25
2022-09-29T17:49:12.399Z,100473.81
2022-09-29T17:51:40.073Z,100479.84
2022-09-29T17:54:07.549Z,100480.41
2022-09-29T17:56:37.501Z,100477.75
2022-09-29T17:59:06.069Z,100484.91
2022-09-29T18:01:34.913Z,100490.13
2022-09-29T18:04:02.465Z,100486.63
2022-09-29T18:06:32.756Z,100481.19
2022-09-29T18:09:00.272Z,100487.97
2022-09-29T18:11:27.772Z,100485.31
2022-09-29T18:13:56.044Z,100495.31
2022-09-29T18:16:24.874Z,100489.84
2022-09-29T18:18:57.979Z,100501.50
2022-09-29T18:21:26.528Z,100504.66
2022-09-29T18:23:55.507Z,100504.41
2022-09-29T18:26:23.196Z,100501.75
2022-09-29T18:28:51.445Z,100510.94
2022-09-29T18:31:21.837Z,100519.34
2022-09-29T18:33:49.271Z,100511.25
2022-09-29T18:36:16.737Z,100518.00
2022-09-29T18:38:46.939Z,100520.38
2022-09-29T18:41:16.966Z,100514.09
2022-09-29T18:43:44.382Z,100524.91
2022-09-29T18:46:13.579Z,100522.22
2022-09-29T18:48:41.829Z,100533.19
2022-09-29T18:51:13.373Z,100533.59
2022-09-29T18:53:42.293Z,100534.94
2022-09-29T18:56:15.411Z,100536.91
2022-09-29T18:58:44.437Z,100541.84
2022-09-29T19:01:14.616Z,100549.41
2022-09-29T19:03:43.079Z,100552.53
2022-09-29T19:06:14.730Z,100543.28
2022-09-29T19:08:42.799Z,100547.88
2022-09-29T19:11:16.812Z,100553.44
2022-09-29T19:13:45.728Z,100547.59
2022-09-29T19:16:13.898Z,100549.75
2022-09-29T19:18:41.764Z,100548.53
2022-09-29T19:21:10.711Z,100555.06
2022-09-29T19:23:38.139Z,100557.03
2022-09-29T19:26:09.816Z,100554.97
2022-09-29T19:28:37.209Z,100562.34
2022-09-29T19:31:07.072Z,100572.31
2022-09-29T19:33:34.613Z,100572.66
2022-09-29T19:36:04.363Z,100575.66
2022-09-29T19:38:32.598Z,100587.25
2022-09-29T19:41:00.057Z,100592.81
2022-09-29T19:43:27.536Z,100596.38
2022-09-29T19:45:54.924Z,100594.13
2022-09-29T19:48:24.376Z,100595.13
2022-09-29T19:51:14.895Z,100595.50
2022-09-29T19:53:44.590Z,100601.69
2022-09-29T19:56:16.433Z,100596.81
2022-09-29T19:58:43.864Z,100595.88
2022-09-29T20:01:12.121Z,100593.09
2022-09-29T20:03:43.316Z,100594.63
2022-09-29T20:06:10.833Z,100597.13
2022-09-29T20:08:39.105Z,100598.56
2022-09-29T20:11:07.962Z,100606.03
2022-09-29T20:13:35.388Z,100608.53
2022-09-29T20:16:03.153Z,100605.91
2022-09-29T20:18:30.881Z,100615.09
2022-09-29T20:21:00.356Z,100618.03
2022-09-29T20:23:27.886Z,100614.16
2022-09-29T20:26:01.293Z,100617.72
2022-09-29T20:28:28.738Z,100624.13
2022-09-29T20:30:59.272Z,100621.69
2022-09-29T20:33:27.181Z,100625.78
2022-09-29T20:35:54.614Z,100621.28
2022-09-29T20:38:23.378Z,100630.25
2022-09-29T20:40:50.768Z,100633.19
2022-09-29T20:43:18.156Z,100634.31
2022-09-29T20:45:45.861Z,100630.25
2022-09-29T20:48:13.296Z,100640.25
2022-09-29T20:50:40.700Z,100640.41
2022-09-29T20:53:08.047Z,100644.97
2022-09-29T20:55:36.775Z,100652.28
2022-09-29T20:58:04.320Z,100660.28
2022-09-29T21:00:31.975Z,100663.25
2022-09-29T21:02:59.420Z,100670.41
2022-09-29T21:05:27.165Z,100669.09
2022-09-29T21:07:55.776Z,100667.47
2022-09-29T21:10:23.181Z,100669.75
2022-09-29T21:12:52.026Z,100674.78
2022-09-29T21:15:19.454Z,100671.38
2022-09-29T21:17:46.880Z,100674.31
2022-09-29T21:20:14.418Z,100678.06
2022-09-29T21:22:41.796Z,100673.00
2022-09-29T21:25:09.596Z,100682.63
2022-09-29T21:27:40.891Z,100682.97
2022-09-29T21:30:10.899Z,100675.66
2022-09-29T21:32:38.278Z,100684.44
2022-09-29T21:35:06.108Z,100689.66
2022-09-29T21:37:33.548Z,100684.78
2022-09-29T21:40:01.133Z,100696.34
2022-09-29T21:42:28.538Z,100686.09
2022-09-29T21:44:58.026Z,100685.47
2022-09-29T21:47:47.145Z,100692.28
2022-09-29T21:50:14.702Z,100688.22
2022-09-29T21:52:42.435Z,100686.94
2022-09-29T21:55:10.458Z,100684.69
2022-09-29T21:57:39.211Z,100690.22
2022-09-29T22:00:07.053Z,100691.47
2022-09-29T22:02:35.933Z,100696.03
2022-09-29T22:05:03.498Z,100694.09
2022-09-29T22:07:30.937Z,100698.78
2022-09-29T22:09:58.532Z,100694.56
2022-09-29T22:12:26.211Z,100691.34
2022-09-29T22:14:53.607Z,100692.16
2022-09-29T22:17:21.836Z,100691.34
2022-09-29T22:19:50.588Z,100696.88
2022-09-29T22:22:18.014Z,100691.69
2022-09-29T22:24:45.407Z,100695.91
2022-09-29T22:27:13.146Z,100690.84
2022-09-29T22:29:40.560Z,100613.28
2022-09-29T22:32:08.016Z,100692.81
2022-09-29T22:34:35.422Z,100688.75
2022-09-29T22:37:04.218Z,100692.69
2022-09-29T22:39:31.639Z,100693.81
2022-09-29T22:42:01.205Z,100701.78
2022-09-29T22:44:28.610Z,100695.09
2022-09-29T22:46:56.105Z,100705.50
2022-09-29T22:49:23.992Z,100707.81
2022-09-29T22:51:51.631Z,100704.72
2022-09-29T22:54:20.370Z,100709.09
2022-09-29T22:56:47.990Z,100708.94
2022-09-29T22:59:15.871Z,100707.63
2022-09-29T23:01:43.325Z,100701.97
2022-09-29T23:04:10.845Z,100712.19
2022-09-29T23:06:38.285Z,100714.28
2022-09-29T23:09:05.893Z,100716.88
2022-09-29T23:11:35.914Z,100716.25
2022-09-29T23:14:03.529Z,100713.50
2022-09-29T23:16:31.303Z,100714.47
2022-09-29T23:18:59.534Z,100712.03
2022-09-29T23:21:27.072Z,100717.72
2022-09-29T23:23:55.910Z,100716.09
2022-09-29T23:26:23.504Z,100718.69
2022-09-29T23:28:52.600Z,100720.47
2022-09-29T23:31:20.255Z,100714.97
2022-09-29T23:33:51.872Z,100717.72
2022-09-29T23:36:19.340Z,100717.22
2022-09-29T23:39:04.097Z,100723.53
2022-09-29T23:41:32.675Z,100717.38
2022-09-29T23:44:03.141Z,100713.81
2022-09-29T23:46:31.335Z,100713.00
2022-09-29T23:48:59.226Z,100714.78
2022-09-29T23:51:26.660Z,100714.28
2022-09-29T23:53:54.071Z,100719.47
2022-09-29T23:56:22.041Z,100719.31
2022-09-29T23:58:49.454Z,100714.28
